sensor_id;sensor_type;location;lat;lon;timestamp;temperature;humidity
21207;DHT22;10761;48.532;8.026;2022-10-17T00:00:42;14.50;99.90
21207;DHT22;10761;48.532;8.026;2022-10-17T00:03:08;14.50;99.90
21207;DHT22;10761;48.532;8.026;2022-10-17T00:05:39;14.60;99.90
21207;DHT22;10761;48.532;8.026;2022-10-17T00:08:05;14.50;99.90
21207;DHT22;10761;48.532;8.026;2022-10-17T00:10:31;14.50;99.90
21207;DHT22;10761;48.532;8.026;2022-10-17T00:12:56;14.60;99.90
21207;DHT22;10761;48.532;8.026;2022-10-17T00:15:22;14.50;99.90
21207;DHT22;10761;48.532;8.026;2022-10-17T00:17:48;14.50;99.90
21207;DHT22;10761;48.532;8.026;2022-10-17T00:20:14;14.40;99.90
21207;DHT22;10761;48.532;8.026;2022-10-17T00:22:40;14.30;99.90
21207;DHT22;10761;48.532;8.026;2022-10-17T00:25:07;14.30;99.90
21207;DHT22;10761;48.532;8.026;2022-10-17T00:27:37;14.20;99.90
21207;DHT22;10761;48.532;8.026;2022-10-17T00:30:04;14.10;99.90
21207;DHT22;10761;48.532;8.026;2022-10-17T00:32:30;14.10;99.90
21207;DHT22;10761;48.532;8.026;2022-10-17T00:34:57;14.10;99.90
21207;DHT22;10761;48.532;8.026;2022-10-17T00:37:22;14.10;99.90
21207;DHT22;10761;48.532;8.026;2022-10-17T00:39:48;14.00;99.90
21207;DHT22;10761;48.532;8.026;2022-10-17T00:42:14;14.00;99.90
21207;DHT22;10761;48.532;8.026;2022-10-17T00:47:10;13.90;99.90
21207;DHT22;10761;48.532;8.026;2022-10-17T00:49:38;13.90;99.90
21207;DHT22;10761;48.532;8.026;2022-10-17T00:52:08;13.90;99.90
21207;DHT22;10761;48.532;8.026;2022-10-17T00:54:39;13.80;99.90
21207;DHT22;10761;48.532;8.026;2022-10-17T00:57:06;13.80;99.90
21207;DHT22;10761;48.532;8.026;2022-10-17T00:59:33;13.80;99.90
21207;DHT22;10761;48.532;8.026;2022-10-17T01:02:03;13.90;99.90
21207;DHT22;10761;48.532;8.026;2022-10-17T01:04:29;14.00;99.90
21207;DHT22;10761;48.532;8.026;2022-10-17T01:06:55;14.00;99.90
21207;DHT22;10761;48.532;8.026;2022-10-17T01:09:21;14.00;99.90
21207;DHT22;10761;48.532;8.026;2022-10-17T01:17:14;14.20;99.90
21207;DHT22;10761;48.532;8.026;2022-10-17T01:23:14;14.10;99.90
21207;DHT22;10761;48.532;8.026;2022-10-17T01:26:13;14.00;99.90
21207;DHT22;10761;48.532;8.026;2022-10-17T01:31:38;13.90;99.90
21207;DHT22;10761;48.532;8.026;2022-10-17T01:37:05;13.90;99.90
21207;DHT22;10761;48.532;8.026;2022-10-17T01:39:52;13.80;99.90
21207;DHT22;10761;48.532;8.026;2022-10-17T01:46:23;13.80;99.90
21207;DHT22;10761;48.532;8.026;2022-10-17T01:48:51;13.80;99.90
21207;DHT22;10761;48.532;8.026;2022-10-17T01:51:24;13.80;99.90
21207;DHT22;10761;48.532;8.026;2022-10-17T01:56:39;13.90;99.90
21207;DHT22;10761;48.532;8.026;2022-10-17T01:59:16;13.80;99.90
21207;DHT22;10761;48.532;8.026;2022-10-17T02:01:43;13.70;99.90
21207;DHT22;10761;48.532;8.026;2022-10-17T02:04:10;13.70;99.90
21207;DHT22;10761;48.532;8.026;2022-10-17T02:06:36;13.70;99.90
21207;DHT22;10761;48.532;8.026;2022-10-17T02:09:19;13.60;99.90
21207;DHT22;10761;48.532;8.026;2022-10-17T02:12:17;13.50;99.90
21207;DHT22;10761;48.532;8.026;2022-10-17T02:23:35;13.40;99.90
21207;DHT22;10761;48.532;8.026;2022-10-17T02:25:46;13.40;99.90
21207;DHT22;10761;48.532;8.026;2022-10-17T02:28:33;13.40;99.90
21207;DHT22;10761;48.532;8.026;2022-10-17T02:36:13;13.40;99.90
21207;DHT22;10761;48.532;8.026;2022-10-17T02:38:39;13.40;99.90
21207;DHT22;10761;48.532;8.026;2022-10-17T02:41:10;13.40;99.90
21207;DHT22;10761;48.532;8.026;2022-10-17T02:43:37;13.40;99.90
21207;DHT22;10761;48.532;8.026;2022-10-17T02:46:04;13.40;99.90
21207;DHT22;10761;48.532;8.026;2022-10-17T02:48:37;13.30;99.90
21207;DHT22;10761;48.532;8.026;2022-10-17T02:51:48;13.30;99.90
21207;DHT22;10761;48.532;8.026;2022-10-17T02:56:42;13.20;99.90
21207;DHT22;10761;48.532;8.026;2022-10-17T02:59:11;13.10;99.90
21207;DHT22;10761;48.532;8.026;2022-10-17T03:01:38;13.10;99.90
21207;DHT22;10761;48.532;8.026;2022-10-17T03:04:12;13.20;99.90
21207;DHT22;10761;48.532;8.026;2022-10-17T03:06:40;13.20;99.90
21207;DHT22;10761;48.532;8.026;2022-10-17T03:09:06;13.20;99.90
21207;DHT22;10761;48.532;8.026;2022-10-17T03:11:31;13.30;99.90
21207;DHT22;10761;48.532;8.026;2022-10-17T03:13:57;13.30;99.90
21207;DHT22;10761;48.532;8.026;2022-10-17T03:16:23;13.30;99.90
21207;DHT22;10761;48.532;8.026;2022-10-17T03:18:48;13.30;99.90
21207;DHT22;10761;48.532;8.026;2022-10-17T03:21:14;13.30;99.90
21207;DHT22;10761;48.532;8.026;2022-10-17T03:23:40;13.30;99.90
21207;DHT22;10761;48.532;8.026;2022-10-17T03:26:06;13.30;99.90
21207;DHT22;10761;48.532;8.026;2022-10-17T03:28:32;13.40;99.90
21207;DHT22;10761;48.532;8.026;2022-10-17T03:30:57;13.30;99.90
21207;DHT22;10761;48.532;8.026;2022-10-17T03:33:23;13.30;99.90
21207;DHT22;10761;48.532;8.026;2022-10-17T03:35:49;13.30;99.90
21207;DHT22;10761;48.532;8.026;2022-10-17T03:38:15;13.30;99.90
21207;DHT22;10761;48.532;8.026;2022-10-17T03:40:40;13.20;99.90
21207;DHT22;10761;48.532;8.026;2022-10-17T03:43:06;13.20;99.90
21207;DHT22;10761;48.532;8.026;2022-10-17T03:45:31;13.10;99.90
21207;DHT22;10761;48.532;8.026;2022-10-17T03:47:58;13.10;99.90
21207;DHT22;10761;48.532;8.026;2022-10-17T03:50:24;13.10;99.90
21207;DHT22;10761;48.532;8.026;2022-10-17T03:52:49;13.10;99.90
21207;DHT22;10761;48.532;8.026;2022-10-17T03:55:15;13.00;99.90
21207;DHT22;10761;48.532;8.026;2022-10-17T03:57:41;13.00;99.90
21207;DHT22;10761;48.532;8.026;2022-10-17T04:00:07;13.00;99.90
21207;DHT22;10761;48.532;8.026;2022-10-17T04:02:33;12.90;99.90
21207;DHT22;10761;48.532;8.026;2022-10-17T04:05:00;12.80;99.90
21207;DHT22;10761;48.532;8.026;2022-10-17T04:07:25;12.70;99.90
21207;DHT22;10761;48.532;8.026;2022-10-17T04:09:51;12.70;99.90
21207;DHT22;10761;48.532;8.026;2022-10-17T04:12:17;12.80;99.90
21207;DHT22;10761;48.532;8.026;2022-10-17T04:14:42;12.90;99.90
21207;DHT22;10761;48.532;8.026;2022-10-17T04:17:08;12.80;99.90
21207;DHT22;10761;48.532;8.026;2022-10-17T04:19:34;12.80;99.90
21207;DHT22;10761;48.532;8.026;2022-10-17T04:22:00;12.80;99.90
21207;DHT22;10761;48.532;8.026;2022-10-17T04:24:27;12.80;99.90
21207;DHT22;10761;48.532;8.026;2022-10-17T04:26:53;12.80;99.90
21207;DHT22;10761;48.532;8.026;2022-10-17T04:29:19;12.70;99.90
21207;DHT22;10761;48.532;8.026;2022-10-17T04:31:46;12.70;99.90
21207;DHT22;10761;48.532;8.026;2022-10-17T04:34:11;12.70;99.90
21207;DHT22;10761;48.532;8.026;2022-10-17T04:36:39;12.70;99.90
21207;DHT22;10761;48.532;8.026;2022-10-17T04:39:04;12.60;99.90
21207;DHT22;10761;48.532;8.026;2022-10-17T04:41:30;12.60;99.90
21207;DHT22;10761;48.532;8.026;2022-10-17T04:43:56;12.70;99.90
21207;DHT22;10761;48.532;8.026;2022-10-17T04:46:22;12.60;99.90
21207;DHT22;10761;48.532;8.026;2022-10-17T04:48:48;12.60;99.90
21207;DHT22;10761;48.532;8.026;2022-10-17T04:51:17;12.60;99.90
21207;DHT22;10761;48.532;8.026;2022-10-17T04:53:43;12.70;99.90
21207;DHT22;10761;48.532;8.026;2022-10-17T04:58:38;12.80;99.90
21207;DHT22;10761;48.532;8.026;2022-10-17T05:01:12;12.70;99.90
21207;DHT22;10761;48.532;8.026;2022-10-17T05:03:39;12.60;99.90
21207;DHT22;10761;48.532;8.026;2022-10-17T05:06:06;12.70;99.90
21207;DHT22;10761;48.532;8.026;2022-10-17T05:08:32;12.70;99.90
21207;DHT22;10761;48.532;8.026;2022-10-17T05:10:57;13.00;99.90
21207;DHT22;10761;48.532;8.026;2022-10-17T05:13:23;13.10;99.90
21207;DHT22;10761;48.532;8.026;2022-10-17T05:15:48;13.30;99.90
21207;DHT22;10761;48.532;8.026;2022-10-17T05:18:14;13.50;99.90
21207;DHT22;10761;48.532;8.026;2022-10-17T05:20:40;13.70;99.90
21207;DHT22;10761;48.532;8.026;2022-10-17T05:23:05;13.80;99.90
21207;DHT22;10761;48.532;8.026;2022-10-17T05:25:31;13.80;99.90
21207;DHT22;10761;48.532;8.026;2022-10-17T05:27:57;14.00;99.90
21207;DHT22;10761;48.532;8.026;2022-10-17T05:30:22;14.00;99.90
21207;DHT22;10761;48.532;8.026;2022-10-17T05:32:51;14.10;99.90
21207;DHT22;10761;48.532;8.026;2022-10-17T05:35:17;14.10;99.90
21207;DHT22;10761;48.532;8.026;2022-10-17T05:37:43;14.10;99.90
21207;DHT22;10761;48.532;8.026;2022-10-17T05:40:09;14.10;99.90
21207;DHT22;10761;48.532;8.026;2022-10-17T05:42:35;14.10;99.90
21207;DHT22;10761;48.532;8.026;2022-10-17T05:45:01;14.10;99.90
21207;DHT22;10761;48.532;8.026;2022-10-17T05:47:27;14.00;99.90
21207;DHT22;10761;48.532;8.026;2022-10-17T05:49:52;14.00;99.90
21207;DHT22;10761;48.532;8.026;2022-10-17T05:52:18;14.00;99.90
21207;DHT22;10761;48.532;8.026;2022-10-17T05:54:43;13.90;99.90
21207;DHT22;10761;48.532;8.026;2022-10-17T05:57:09;14.00;99.90
21207;DHT22;10761;48.532;8.026;2022-10-17T05:59:35;14.00;99.90
21207;DHT22;10761;48.532;8.026;2022-10-17T06:02:00;13.90;99.90
21207;DHT22;10761;48.532;8.026;2022-10-17T06:04:26;13.80;99.90
21207;DHT22;10761;48.532;8.026;2022-10-17T06:06:52;13.70;99.90
21207;DHT22;10761;48.532;8.026;2022-10-17T06:09:18;13.50;99.90
21207;DHT22;10761;48.532;8.026;2022-10-17T06:11:44;13.30;99.90
21207;DHT22;10761;48.532;8.026;2022-10-17T06:14:09;13.20;99.90
21207;DHT22;10761;48.532;8.026;2022-10-17T06:16:35;13.20;99.90
21207;DHT22;10761;48.532;8.026;2022-10-17T06:19:01;13.20;99.90
21207;DHT22;10761;48.532;8.026;2022-10-17T06:21:27;13.20;99.90
21207;DHT22;10761;48.532;8.026;2022-10-17T06:23:52;13.20;99.90
21207;DHT22;10761;48.532;8.026;2022-10-17T06:26:19;13.20;99.90
21207;DHT22;10761;48.532;8.026;2022-10-17T06:28:45;13.20;99.90
21207;DHT22;10761;48.532;8.026;2022-10-17T06:31:13;13.30;99.90
21207;DHT22;10761;48.532;8.026;2022-10-17T06:33:39;13.40;99.90
21207;DHT22;10761;48.532;8.026;2022-10-17T06:36:05;13.50;99.90
21207;DHT22;10761;48.532;8.026;2022-10-17T06:38:33;13.60;99.90
21207;DHT22;10761;48.532;8.026;2022-10-17T06:41:19;13.60;99.90
21207;DHT22;10761;48.532;8.026;2022-10-17T06:43:46;13.80;99.90
21207;DHT22;10761;48.532;8.026;2022-10-17T06:46:13;13.90;99.90
21207;DHT22;10761;48.532;8.026;2022-10-17T06:48:38;14.00;99.90
21207;DHT22;10761;48.532;8.026;2022-10-17T06:51:05;14.20;99.90
21207;DHT22;10761;48.532;8.026;2022-10-17T06:53:33;14.20;99.90
21207;DHT22;10761;48.532;8.026;2022-10-17T06:56:00;14.30;99.90
21207;DHT22;10761;48.532;8.026;2022-10-17T06:58:32;14.50;99.90
21207;DHT22;10761;48.532;8.026;2022-10-17T07:01:01;14.60;99.90
21207;DHT22;10761;48.532;8.026;2022-10-17T07:03:28;14.80;99.90
21207;DHT22;10761;48.532;8.026;2022-10-17T07:05:54;15.00;99.90
21207;DHT22;10761;48.532;8.026;2022-10-17T07:08:20;15.10;99.90
21207;DHT22;10761;48.532;8.026;2022-10-17T07:10:46;15.30;99.90
21207;DHT22;10761;48.532;8.026;2022-10-17T07:13:12;15.50;99.90
21207;DHT22;10761;48.532;8.026;2022-10-17T07:15:38;15.60;99.90
21207;DHT22;10761;48.532;8.026;2022-10-17T07:18:04;15.70;99.90
21207;DHT22;10761;48.532;8.026;2022-10-17T07:20:30;15.80;99.90
21207;DHT22;10761;48.532;8.026;2022-10-17T07:22:56;16.00;99.90
21207;DHT22;10761;48.532;8.026;2022-10-17T07:25:22;16.20;99.90
21207;DHT22;10761;48.532;8.026;2022-10-17T07:27:49;16.40;99.90
21207;DHT22;10761;48.532;8.026;2022-10-17T07:30:15;16.60;99.90
21207;DHT22;10761;48.532;8.026;2022-10-17T07:32:41;16.90;99.90
21207;DHT22;10761;48.532;8.026;2022-10-17T07:35:07;17.20;99.90
21207;DHT22;10761;48.532;8.026;2022-10-17T07:37:33;17.50;99.90
21207;DHT22;10761;48.532;8.026;2022-10-17T07:39:59;17.80;99.90
21207;DHT22;10761;48.532;8.026;2022-10-17T07:42:24;18.00;99.90
21207;DHT22;10761;48.532;8.026;2022-10-17T07:44:50;17.90;99.90
21207;DHT22;10761;48.532;8.026;2022-10-17T07:47:16;18.40;99.90
21207;DHT22;10761;48.532;8.026;2022-10-17T07:49:41;19.10;99.90
21207;DHT22;10761;48.532;8.026;2022-10-17T07:52:15;19.60;99.90
21207;DHT22;10761;48.532;8.026;2022-10-17T07:54:41;19.80;99.90
21207;DHT22;10761;48.532;8.026;2022-10-17T07:57:07;19.90;99.90
21207;DHT22;10761;48.532;8.026;2022-10-17T07:59:33;20.10;99.90
21207;DHT22;10761;48.532;8.026;2022-10-17T08:02:00;20.50;99.90
21207;DHT22;10761;48.532;8.026;2022-10-17T08:04:26;20.70;99.90
21207;DHT22;10761;48.532;8.026;2022-10-17T08:06:52;20.90;99.90
21207;DHT22;10761;48.532;8.026;2022-10-17T08:09:18;20.90;99.90
21207;DHT22;10761;48.532;8.026;2022-10-17T08:11:44;20.70;99.90
21207;DHT22;10761;48.532;8.026;2022-10-17T08:14:13;20.70;99.90
21207;DHT22;10761;48.532;8.026;2022-10-17T08:16:41;20.40;99.90
21207;DHT22;10761;48.532;8.026;2022-10-17T08:19:06;20.10;99.90
21207;DHT22;10761;48.532;8.026;2022-10-17T08:21:33;20.00;99.90
21207;DHT22;10761;48.532;8.026;2022-10-17T08:23:59;19.90;99.90
21207;DHT22;10761;48.532;8.026;2022-10-17T08:26:27;19.80;99.90
21207;DHT22;10761;48.532;8.026;2022-10-17T08:28:53;19.30;99.90
21207;DHT22;10761;48.532;8.026;2022-10-17T08:31:19;19.70;99.90
21207;DHT22;10761;48.532;8.026;2022-10-17T08:33:46;20.10;99.90
21207;DHT22;10761;48.532;8.026;2022-10-17T08:36:15;20.80;99.90
21207;DHT22;10761;48.532;8.026;2022-10-17T08:38:41;20.80;99.90
21207;DHT22;10761;48.532;8.026;2022-10-17T08:41:33;21.20;99.90
21207;DHT22;10761;48.532;8.026;2022-10-17T08:46:57;22.70;99.90
21207;DHT22;10761;48.532;8.026;2022-10-17T08:49:52;23.20;99.90
21207;DHT22;10761;48.532;8.026;2022-10-17T08:52:32;23.60;99.90
21207;DHT22;10761;48.532;8.026;2022-10-17T08:54:59;24.30;99.90
21207;DHT22;10761;48.532;8.026;2022-10-17T08:57:25;24.40;99.90
21207;DHT22;10761;48.532;8.026;2022-10-17T08:59:52;24.60;99.90
21207;DHT22;10761;48.532;8.026;2022-10-17T09:02:36;23.70;99.90
21207;DHT22;10761;48.532;8.026;2022-10-17T09:08:09;23.00;99.90
21207;DHT22;10761;48.532;8.026;2022-10-17T09:10:54;23.30;99.90
21207;DHT22;10761;48.532;8.026;2022-10-17T09:19:28;24.60;99.90
21207;DHT22;10761;48.532;8.026;2022-10-17T09:22:02;24.20;99.90
21207;DHT22;10761;48.532;8.026;2022-10-17T09:25:01;24.30;99.90
21207;DHT22;10761;48.532;8.026;2022-10-17T09:27:45;23.90;99.90
21207;DHT22;10761;48.532;8.026;2022-10-17T09:32:58;24.10;99.90
21207;DHT22;10761;48.532;8.026;2022-10-17T09:35:24;24.10;99.90
21207;DHT22;10761;48.532;8.026;2022-10-17T09:37:52;24.60;99.90
21207;DHT22;10761;48.532;8.026;2022-10-17T09:40:31;25.00;99.90
21207;DHT22;10761;48.532;8.026;2022-10-17T09:43:03;25.10;99.90
21207;DHT22;10761;48.532;8.026;2022-10-17T09:45:29;25.20;99.90
21207;DHT22;10761;48.532;8.026;2022-10-17T09:48:14;25.40;99.90
21207;DHT22;10761;48.532;8.026;2022-10-17T09:50:44;25.40;99.90
21207;DHT22;10761;48.532;8.026;2022-10-17T09:53:23;25.00;99.90
21207;DHT22;10761;48.532;8.026;2022-10-17T09:55:54;24.70;99.90
21207;DHT22;10761;48.532;8.026;2022-10-17T09:58:22;24.50;99.90
21207;DHT22;10761;48.532;8.026;2022-10-17T10:00:48;24.70;99.90
21207;DHT22;10761;48.532;8.026;2022-10-17T10:03:22;25.10;99.90
21207;DHT22;10761;48.532;8.026;2022-10-17T10:08:56;25.40;99.90
21207;DHT22;10761;48.532;8.026;2022-10-17T10:11:51;25.50;99.90
21207;DHT22;10761;48.532;8.026;2022-10-17T10:16:47;26.30;99.90
21207;DHT22;10761;48.532;8.026;2022-10-17T10:22:04;26.90;99.90
21207;DHT22;10761;48.532;8.026;2022-10-17T10:24:31;27.20;99.90
21207;DHT22;10761;48.532;8.026;2022-10-17T10:27:02;27.50;99.90
21207;DHT22;10761;48.532;8.026;2022-10-17T10:29:37;27.70;99.90
21207;DHT22;10761;48.532;8.026;2022-10-17T10:32:26;26.90;99.90
21207;DHT22;10761;48.532;8.026;2022-10-17T10:37:50;28.30;99.90
21207;DHT22;10761;48.532;8.026;2022-10-17T10:41:04;28.90;99.90
21207;DHT22;10761;48.532;8.026;2022-10-17T10:46:14;29.40;99.90
21207;DHT22;10761;48.532;8.026;2022-10-17T10:48:50;29.00;99.90
21207;DHT22;10761;48.532;8.026;2022-10-17T10:51:20;29.10;99.90
21207;DHT22;10761;48.532;8.026;2022-10-17T10:53:52;29.30;99.90
21207;DHT22;10761;48.532;8.026;2022-10-17T11:01:46;30.50;99.90
21207;DHT22;10761;48.532;8.026;2022-10-17T11:04:35;30.50;99.90
21207;DHT22;10761;48.532;8.026;2022-10-17T11:12:35;30.50;99.90
21207;DHT22;10761;48.532;8.026;2022-10-17T11:15:21;30.10;99.90
21207;DHT22;10761;48.532;8.026;2022-10-17T11:18:10;29.80;99.90
21207;DHT22;10761;48.532;8.026;2022-10-17T11:21:02;30.10;99.90
21207;DHT22;10761;48.532;8.026;2022-10-17T11:23:41;29.90;99.90
21207;DHT22;10761;48.532;8.026;2022-10-17T11:26:15;29.30;99.90
21207;DHT22;10761;48.532;8.026;2022-10-17T11:28:51;29.00;99.90
21207;DHT22;10761;48.532;8.026;2022-10-17T11:31:17;28.70;99.90
21207;DHT22;10761;48.532;8.026;2022-10-17T11:34:00;28.60;99.90
21207;DHT22;10761;48.532;8.026;2022-10-17T11:36:34;28.70;99.90
21207;DHT22;10761;48.532;8.026;2022-10-17T11:39:06;28.90;99.90
21207;DHT22;10761;48.532;8.026;2022-10-17T11:41:46;28.90;99.90
21207;DHT22;10761;48.532;8.026;2022-10-17T11:44:21;28.60;99.90
21207;DHT22;10761;48.532;8.026;2022-10-17T11:49:50;28.90;99.90
21207;DHT22;10761;48.532;8.026;2022-10-17T11:55:04;29.40;99.90
21207;DHT22;10761;48.532;8.026;2022-10-17T11:57:37;29.70;99.90
21207;DHT22;10761;48.532;8.026;2022-10-17T12:11:33;30.40;95.50
21207;DHT22;10761;48.532;8.026;2022-10-17T12:14:37;30.30;98.30
21207;DHT22;10761;48.532;8.026;2022-10-17T12:17:21;30.50;96.40
21207;DHT22;10761;48.532;8.026;2022-10-17T12:19:48;30.50;96.40
21207;DHT22;10761;48.532;8.026;2022-10-17T12:22:22;30.40;96.20
21207;DHT22;10761;48.532;8.026;2022-10-17T12:24:58;30.20;95.80
21207;DHT22;10761;48.532;8.026;2022-10-17T12:27:39;30.50;96.80
21207;DHT22;10761;48.532;8.026;2022-10-17T12:32:37;29.70;93.40
21207;DHT22;10761;48.532;8.026;2022-10-17T12:35:03;29.50;94.50
21207;DHT22;10761;48.532;8.026;2022-10-17T12:43:02;29.60;93.80
21207;DHT22;10761;48.532;8.026;2022-10-17T12:45:51;30.10;92.50
21207;DHT22;10761;48.532;8.026;2022-10-17T12:53:48;31.40;91.00
21207;DHT22;10761;48.532;8.026;2022-10-17T12:56:18;31.50;90.50
21207;DHT22;10761;48.532;8.026;2022-10-17T12:58:46;31.80;90.90
21207;DHT22;10761;48.532;8.026;2022-10-17T13:01:32;31.70;90.10
21207;DHT22;10761;48.532;8.026;2022-10-17T13:04:00;31.90;88.00
21207;DHT22;10761;48.532;8.026;2022-10-17T13:06:31;31.70;88.50
21207;DHT22;10761;48.532;8.026;2022-10-17T13:09:07;32.80;89.00
21207;DHT22;10761;48.532;8.026;2022-10-17T13:11:36;33.60;79.20
21207;DHT22;10761;48.532;8.026;2022-10-17T13:14:11;33.30;78.80
21207;DHT22;10761;48.532;8.026;2022-10-17T13:16:42;33.30;80.20
21207;DHT22;10761;48.532;8.026;2022-10-17T13:19:17;34.20;78.20
21207;DHT22;10761;48.532;8.026;2022-10-17T13:21:57;34.40;77.80
21207;DHT22;10761;48.532;8.026;2022-10-17T13:26:57;34.20;75.80
21207;DHT22;10761;48.532;8.026;2022-10-17T13:29:24;34.20;69.80
21207;DHT22;10761;48.532;8.026;2022-10-17T13:31:52;34.30;72.80
21207;DHT22;10761;48.532;8.026;2022-10-17T13:34:23;34.60;71.60
21207;DHT22;10761;48.532;8.026;2022-10-17T13:36:57;35.00;69.70
21207;DHT22;10761;48.532;8.026;2022-10-17T13:39:25;35.60;67.60
21207;DHT22;10761;48.532;8.026;2022-10-17T13:41:53;35.00;66.40
21207;DHT22;10761;48.532;8.026;2022-10-17T13:44:20;34.30;70.50
21207;DHT22;10761;48.532;8.026;2022-10-17T13:46:48;34.50;69.40
21207;DHT22;10761;48.532;8.026;2022-10-17T13:49:41;34.60;69.40
21207;DHT22;10761;48.532;8.026;2022-10-17T13:52:18;34.90;65.90
21207;DHT22;10761;48.532;8.026;2022-10-17T13:54:46;35.50;65.90
21207;DHT22;10761;48.532;8.026;2022-10-17T13:57:27;36.00;62.70
21207;DHT22;10761;48.532;8.026;2022-10-17T13:59:58;36.30;62.60
21207;DHT22;10761;48.532;8.026;2022-10-17T14:02:33;36.40;60.50
21207;DHT22;10761;48.532;8.026;2022-10-17T14:05:13;36.00;59.30
21207;DHT22;10761;48.532;8.026;2022-10-17T14:07:53;36.00;62.50
21207;DHT22;10761;48.532;8.026;2022-10-17T14:10:22;36.30;60.30
21207;DHT22;10761;48.532;8.026;2022-10-17T14:12:50;36.30;58.90
21207;DHT22;10761;48.532;8.026;2022-10-17T14:15:17;35.90;59.50
21207;DHT22;10761;48.532;8.026;2022-10-17T14:17:44;35.50;59.20
21207;DHT22;10761;48.532;8.026;2022-10-17T14:20:20;35.30;59.80
21207;DHT22;10761;48.532;8.026;2022-10-17T14:22:47;35.00;60.00
21207;DHT22;10761;48.532;8.026;2022-10-17T14:25:36;35.60;59.60
21207;DHT22;10761;48.532;8.026;2022-10-17T14:30:46;36.00;58.50
21207;DHT22;10761;48.532;8.026;2022-10-17T14:33:21;36.50;57.80
21207;DHT22;10761;48.532;8.026;2022-10-17T14:35:52;37.50;55.00
21207;DHT22;10761;48.532;8.026;2022-10-17T14:38:18;36.30;56.30
21207;DHT22;10761;48.532;8.026;2022-10-17T14:43:39;36.70;56.40
21207;DHT22;10761;48.532;8.026;2022-10-17T14:46:04;36.90;56.30
21207;DHT22;10761;48.532;8.026;2022-10-17T14:48:31;37.40;55.80
21207;DHT22;10761;48.532;8.026;2022-10-17T14:51:14;37.50;54.60
21207;DHT22;10761;48.532;8.026;2022-10-17T14:53:42;37.60;55.20
21207;DHT22;10761;48.532;8.026;2022-10-17T14:56:24;37.60;54.40
21207;DHT22;10761;48.532;8.026;2022-10-17T14:58:50;37.00;55.60
21207;DHT22;10761;48.532;8.026;2022-10-17T15:01:17;37.30;56.20
21207;DHT22;10761;48.532;8.026;2022-10-17T15:03:42;37.20;55.80
21207;DHT22;10761;48.532;8.026;2022-10-17T15:08:44;37.50;56.60
21207;DHT22;10761;48.532;8.026;2022-10-17T15:11:10;37.50;55.30
21207;DHT22;10761;48.532;8.026;2022-10-17T15:13:36;37.60;55.70
21207;DHT22;10761;48.532;8.026;2022-10-17T15:16:05;37.30;55.60
21207;DHT22;10761;48.532;8.026;2022-10-17T15:18:31;37.00;54.10
21207;DHT22;10761;48.532;8.026;2022-10-17T15:20:57;36.60;56.90
21207;DHT22;10761;48.532;8.026;2022-10-17T15:23:22;36.00;56.40
21207;DHT22;10761;48.532;8.026;2022-10-17T15:25:48;35.80;57.20
21207;DHT22;10761;48.532;8.026;2022-10-17T15:28:14;35.80;60.90
21207;DHT22;10761;48.532;8.026;2022-10-17T15:30:39;35.40;63.00
21207;DHT22;10761;48.532;8.026;2022-10-17T15:33:05;34.90;64.80
21207;DHT22;10761;48.532;8.026;2022-10-17T15:35:31;34.60;64.50
21207;DHT22;10761;48.532;8.026;2022-10-17T15:37:56;34.00;66.20
21207;DHT22;10761;48.532;8.026;2022-10-17T15:40:25;33.50;68.10
21207;DHT22;10761;48.532;8.026;2022-10-17T15:42:53;33.10;68.80
21207;DHT22;10761;48.532;8.026;2022-10-17T15:45:20;32.90;69.50
21207;DHT22;10761;48.532;8.026;2022-10-17T15:47:55;32.60;69.10
21207;DHT22;10761;48.532;8.026;2022-10-17T15:50:21;31.30;71.20
21207;DHT22;10761;48.532;8.026;2022-10-17T15:52:48;30.90;73.20
21207;DHT22;10761;48.532;8.026;2022-10-17T15:55:17;30.70;74.60
21207;DHT22;10761;48.532;8.026;2022-10-17T15:57:44;30.30;75.30
21207;DHT22;10761;48.532;8.026;2022-10-17T16:00:21;30.00;76.00
21207;DHT22;10761;48.532;8.026;2022-10-17T16:02:48;29.60;77.40
21207;DHT22;10761;48.532;8.026;2022-10-17T16:07:41;28.80;80.60
21207;DHT22;10761;48.532;8.026;2022-10-17T16:10:07;28.30;81.70
21207;DHT22;10761;48.532;8.026;2022-10-17T16:12:34;27.90;83.90
21207;DHT22;10761;48.532;8.026;2022-10-17T16:15:13;27.30;86.40
21207;DHT22;10761;48.532;8.026;2022-10-17T16:17:39;26.80;90.10
21207;DHT22;10761;48.532;8.026;2022-10-17T16:20:05;26.30;91.50
21207;DHT22;10761;48.532;8.026;2022-10-17T16:22:32;25.80;93.20
21207;DHT22;10761;48.532;8.026;2022-10-17T16:25:01;25.40;93.90
21207;DHT22;10761;48.532;8.026;2022-10-17T16:27:37;24.90;95.50
21207;DHT22;10761;48.532;8.026;2022-10-17T16:30:05;24.30;97.20
21207;DHT22;10761;48.532;8.026;2022-10-17T16:32:31;23.90;98.90
21207;DHT22;10761;48.532;8.026;2022-10-17T16:34:56;23.50;99.90
21207;DHT22;10761;48.532;8.026;2022-10-17T16:37:24;23.10;99.90
21207;DHT22;10761;48.532;8.026;2022-10-17T16:39:50;22.80;99.90
21207;DHT22;10761;48.532;8.026;2022-10-17T16:42:19;22.50;99.90
21207;DHT22;10761;48.532;8.026;2022-10-17T16:44:45;22.20;99.90
21207;DHT22;10761;48.532;8.026;2022-10-17T16:47:11;22.00;99.90
21207;DHT22;10761;48.532;8.026;2022-10-17T16:49:37;21.80;99.90
21207;DHT22;10761;48.532;8.026;2022-10-17T16:52:03;21.60;99.90
21207;DHT22;10761;48.532;8.026;2022-10-17T16:54:29;21.50;99.90
21207;DHT22;10761;48.532;8.026;2022-10-17T16:56:54;21.40;99.90
21207;DHT22;10761;48.532;8.026;2022-10-17T16:59:23;21.20;99.90
21207;DHT22;10761;48.532;8.026;2022-10-17T17:01:49;21.10;99.90
21207;DHT22;10761;48.532;8.026;2022-10-17T17:04:15;21.00;99.90
21207;DHT22;10761;48.532;8.026;2022-10-17T17:06:40;20.90;99.90
21207;DHT22;10761;48.532;8.026;2022-10-17T17:09:06;20.70;99.90
21207;DHT22;10761;48.532;8.026;2022-10-17T17:11:34;20.60;99.90
21207;DHT22;10761;48.532;8.026;2022-10-17T17:14:00;20.40;99.90
21207;DHT22;10761;48.532;8.026;2022-10-17T17:16:27;20.30;99.90
21207;DHT22;10761;48.532;8.026;2022-10-17T17:18:59;20.10;99.90
21207;DHT22;10761;48.532;8.026;2022-10-17T17:21:25;19.60;99.90
21207;DHT22;10761;48.532;8.026;2022-10-17T17:23:52;19.50;99.90
21207;DHT22;10761;48.532;8.026;2022-10-17T17:26:21;19.40;99.90
21207;DHT22;10761;48.532;8.026;2022-10-17T17:28:47;19.30;99.90
21207;DHT22;10761;48.532;8.026;2022-10-17T17:31:16;19.20;99.90
21207;DHT22;10761;48.532;8.026;2022-10-17T17:33:42;19.10;99.90
21207;DHT22;10761;48.532;8.026;2022-10-17T17:36:11;19.00;99.90
21207;DHT22;10761;48.532;8.026;2022-10-17T17:38:37;18.90;99.90
21207;DHT22;10761;48.532;8.026;2022-10-17T17:41:05;18.80;99.90
21207;DHT22;10761;48.532;8.026;2022-10-17T17:43:31;18.70;99.90
21207;DHT22;10761;48.532;8.026;2022-10-17T17:46:00;18.70;99.90
21207;DHT22;10761;48.532;8.026;2022-10-17T17:48:26;18.60;99.90
21207;DHT22;10761;48.532;8.026;2022-10-17T17:50:51;18.50;99.90